sensor_id;sensor_type;location;lat;lon;timestamp;temperature;humidity
45115;DHT22;30877;43.706;10.780;2023-04-19T00:01:09;16.50;96.70
45115;DHT22;30877;43.706;10.780;2023-04-19T00:03:37;16.50;96.70
45115;DHT22;30877;43.706;10.780;2023-04-19T00:06:06;16.50;96.70
45115;DHT22;30877;43.706;10.780;2023-04-19T00:08:34;16.30;96.70
45115;DHT22;30877;43.706;10.780;2023-04-19T00:11:03;16.20;96.70
45115;DHT22;30877;43.706;10.780;2023-04-19T00:13:31;16.30;96.70
45115;DHT22;30877;43.706;10.780;2023-04-19T00:15:59;16.20;96.70
45115;DHT22;30877;43.706;10.780;2023-04-19T00:18:27;16.20;96.70
45115;DHT22;30877;43.706;10.780;2023-04-19T00:20:54;16.00;96.70
45115;DHT22;30877;43.706;10.780;2023-04-19T00:23:23;15.90;96.70
45115;DHT22;30877;43.706;10.780;2023-04-19T00:25:52;15.90;96.70
45115;DHT22;30877;43.706;10.780;2023-04-19T00:28:21;15.90;96.70
45115;DHT22;30877;43.706;10.780;2023-04-19T00:30:49;16.00;96.70
45115;DHT22;30877;43.706;10.780;2023-04-19T00:33:17;15.80;96.70
45115;DHT22;30877;43.706;10.780;2023-04-19T00:35:44;15.90;96.70
45115;DHT22;30877;43.706;10.780;2023-04-19T00:38:12;15.90;96.70
45115;DHT22;30877;43.706;10.780;2023-04-19T00:40:44;15.80;96.70
45115;DHT22;30877;43.706;10.780;2023-04-19T00:43:16;15.70;96.70
45115;DHT22;30877;43.706;10.780;2023-04-19T00:45:47;15.70;96.70
45115;DHT22;30877;43.706;10.780;2023-04-19T00:48:18;15.70;96.70
45115;DHT22;30877;43.706;10.780;2023-04-19T00:50:45;15.70;96.70
45115;DHT22;30877;43.706;10.780;2023-04-19T00:53:13;15.70;96.70
45115;DHT22;30877;43.706;10.780;2023-04-19T00:55:42;15.70;96.70
45115;DHT22;30877;43.706;10.780;2023-04-19T00:58:10;15.70;96.70
45115;DHT22;30877;43.706;10.780;2023-04-19T01:00:37;15.70;96.70
45115;DHT22;30877;43.706;10.780;2023-04-19T01:03:07;15.20;96.70
45115;DHT22;30877;43.706;10.780;2023-04-19T01:05:36;15.30;96.70
45115;DHT22;30877;43.706;10.780;2023-04-19T01:08:04;15.30;96.70
45115;DHT22;30877;43.706;10.780;2023-04-19T01:10:32;15.40;96.70
45115;DHT22;30877;43.706;10.780;2023-04-19T01:13:00;15.50;96.70
45115;DHT22;30877;43.706;10.780;2023-04-19T01:15:27;15.20;96.70
45115;DHT22;30877;43.706;10.780;2023-04-19T01:17:56;15.00;96.70
45115;DHT22;30877;43.706;10.780;2023-04-19T01:20:25;14.90;96.70
45115;DHT22;30877;43.706;10.780;2023-04-19T01:22:55;15.20;96.70
45115;DHT22;30877;43.706;10.780;2023-04-19T01:25:22;15.30;96.70
45115;DHT22;30877;43.706;10.780;2023-04-19T01:27:50;15.50;96.70
45115;DHT22;30877;43.706;10.780;2023-04-19T01:30:17;15.50;96.70
45115;DHT22;30877;43.706;10.780;2023-04-19T01:32:46;15.50;96.70
45115;DHT22;30877;43.706;10.780;2023-04-19T01:35:14;15.60;96.70
45115;DHT22;30877;43.706;10.780;2023-04-19T01:37:43;15.50;96.70
45115;DHT22;30877;43.706;10.780;2023-04-19T01:40:13;15.50;96.70
45115;DHT22;30877;43.706;10.780;2023-04-19T01:42:41;15.50;96.70
45115;DHT22;30877;43.706;10.780;2023-04-19T01:45:10;15.40;96.70
45115;DHT22;30877;43.706;10.780;2023-04-19T01:47:38;15.40;96.70
45115;DHT22;30877;43.706;10.780;2023-04-19T01:50:07;15.40;96.70
45115;DHT22;30877;43.706;10.780;2023-04-19T01:52:35;15.40;96.70
45115;DHT22;30877;43.706;10.780;2023-04-19T01:55:05;15.40;96.70
45115;DHT22;30877;43.706;10.780;2023-04-19T01:57:36;15.30;96.70
45115;DHT22;30877;43.706;10.780;2023-04-19T02:00:05;15.50;96.70
45115;DHT22;30877;43.706;10.780;2023-04-19T02:02:40;15.60;96.70
45115;DHT22;30877;43.706;10.780;2023-04-19T02:05:09;15.20;96.70
45115;DHT22;30877;43.706;10.780;2023-04-19T02:07:37;14.50;96.70
45115;DHT22;30877;43.706;10.780;2023-04-19T02:10:08;14.50;96.70
45115;DHT22;30877;43.706;10.780;2023-04-19T02:12:38;14.60;96.70
45115;DHT22;30877;43.706;10.780;2023-04-19T02:15:07;14.80;96.70
45115;DHT22;30877;43.706;10.780;2023-04-19T02:17:35;14.80;96.70
45115;DHT22;30877;43.706;10.780;2023-04-19T02:20:04;14.80;96.70
45115;DHT22;30877;43.706;10.780;2023-04-19T02:22:32;14.90;96.70
45115;DHT22;30877;43.706;10.780;2023-04-19T02:25:00;14.70;96.70
45115;DHT22;30877;43.706;10.780;2023-04-19T02:27:30;14.80;96.70
45115;DHT22;30877;43.706;10.780;2023-04-19T02:29:59;14.90;96.70
45115;DHT22;30877;43.706;10.780;2023-04-19T02:32:33;14.80;96.70
45115;DHT22;30877;43.706;10.780;2023-04-19T02:35:01;14.90;96.70
45115;DHT22;30877;43.706;10.780;2023-04-19T02:37:29;15.00;96.70
45115;DHT22;30877;43.706;10.780;2023-04-19T02:39:57;15.10;96.70
45115;DHT22;30877;43.706;10.780;2023-04-19T02:42:28;15.20;96.70
45115;DHT22;30877;43.706;10.780;2023-04-19T02:44:56;15.20;96.70
45115;DHT22;30877;43.706;10.780;2023-04-19T02:47:26;15.20;96.70
45115;DHT22;30877;43.706;10.780;2023-04-19T02:49:54;15.00;96.70
45115;DHT22;30877;43.706;10.780;2023-04-19T02:52:22;14.80;96.70
45115;DHT22;30877;43.706;10.780;2023-04-19T02:54:50;14.60;96.70
45115;DHT22;30877;43.706;10.780;2023-04-19T02:57:18;14.70;96.70
45115;DHT22;30877;43.706;10.780;2023-04-19T02:59:46;14.80;96.70
45115;DHT22;30877;43.706;10.780;2023-04-19T03:02:15;14.80;96.70
45115;DHT22;30877;43.706;10.780;2023-04-19T03:04:44;15.00;96.70
45115;DHT22;30877;43.706;10.780;2023-04-19T03:07:14;15.00;96.70
45115;DHT22;30877;43.706;10.780;2023-04-19T03:09:42;15.00;96.70
45115;DHT22;30877;43.706;10.780;2023-04-19T03:12:11;15.00;96.70
45115;DHT22;30877;43.706;10.780;2023-04-19T03:14:39;15.00;96.70
45115;DHT22;30877;43.706;10.780;2023-04-19T03:17:14;15.00;96.70
45115;DHT22;30877;43.706;10.780;2023-04-19T03:19:46;14.90;96.70
45115;DHT22;30877;43.706;10.780;2023-04-19T03:22:14;14.80;96.70
45115;DHT22;30877;43.706;10.780;2023-04-19T03:24:43;14.70;96.70
45115;DHT22;30877;43.706;10.780;2023-04-19T03:27:18;14.60;96.70
45115;DHT22;30877;43.706;10.780;2023-04-19T03:29:51;14.70;96.70
45115;DHT22;30877;43.706;10.780;2023-04-19T03:32:19;14.60;96.70
45115;DHT22;30877;43.706;10.780;2023-04-19T03:34:49;14.60;96.70
45115;DHT22;30877;43.706;10.780;2023-04-19T03:37:17;14.50;96.70
45115;DHT22;30877;43.706;10.780;2023-04-19T03:39:46;14.40;96.70
45115;DHT22;30877;43.706;10.780;2023-04-19T03:42:21;14.40;96.70
45115;DHT22;30877;43.706;10.780;2023-04-19T03:45:03;14.20;96.70
45115;DHT22;30877;43.706;10.780;2023-04-19T03:47:35;14.30;96.70
45115;DHT22;30877;43.706;10.780;2023-04-19T03:50:05;14.30;96.70
45115;DHT22;30877;43.706;10.780;2023-04-19T03:52:36;14.30;96.70
45115;DHT22;30877;43.706;10.780;2023-04-19T03:55:05;14.20;96.70
45115;DHT22;30877;43.706;10.780;2023-04-19T03:57:39;14.20;96.70
45115;DHT22;30877;43.706;10.780;2023-04-19T04:00:20;14.20;96.70
45115;DHT22;30877;43.706;10.780;2023-04-19T04:02:54;14.30;96.70
45115;DHT22;30877;43.706;10.780;2023-04-19T04:05:26;14.20;96.70
45115;DHT22;30877;43.706;10.780;2023-04-19T04:07:54;14.20;96.70
45115;DHT22;30877;43.706;10.780;2023-04-19T04:10:25;14.00;96.70
45115;DHT22;30877;43.706;10.780;2023-04-19T04:12:54;14.20;96.70
45115;DHT22;30877;43.706;10.780;2023-04-19T04:15:34;14.20;96.70
45115;DHT22;30877;43.706;10.780;2023-04-19T04:18:04;14.30;96.70
45115;DHT22;30877;43.706;10.780;2023-04-19T04:20:37;14.40;96.70
45115;DHT22;30877;43.706;10.780;2023-04-19T04:23:10;14.20;96.70
45115;DHT22;30877;43.706;10.780;2023-04-19T04:25:44;14.20;96.70
45115;DHT22;30877;43.706;10.780;2023-04-19T04:28:13;14.20;96.70
45115;DHT22;30877;43.706;10.780;2023-04-19T04:30:43;14.20;96.70
45115;DHT22;30877;43.706;10.780;2023-04-19T04:33:13;14.10;96.70
45115;DHT22;30877;43.706;10.780;2023-04-19T04:35:44;13.90;96.70
45115;DHT22;30877;43.706;10.780;2023-04-19T04:38:18;14.00;96.70
45115;DHT22;30877;43.706;10.780;2023-04-19T04:40:52;14.20;96.70
45115;DHT22;30877;43.706;10.780;2023-04-19T04:43:21;14.20;96.70
45115;DHT22;30877;43.706;10.780;2023-04-19T04:45:50;14.30;96.70
45115;DHT22;30877;43.706;10.780;2023-04-19T04:48:19;14.40;96.70
45115;DHT22;30877;43.706;10.780;2023-04-19T04:50:48;14.40;96.70
45115;DHT22;30877;43.706;10.780;2023-04-19T04:53:17;14.40;96.70
45115;DHT22;30877;43.706;10.780;2023-04-19T04:55:46;14.30;96.70
45115;DHT22;30877;43.706;10.780;2023-04-19T04:58:14;14.20;96.70
45115;DHT22;30877;43.706;10.780;2023-04-19T05:01:03;14.20;96.70
45115;DHT22;30877;43.706;10.780;2023-04-19T05:03:36;14.20;96.70
45115;DHT22;30877;43.706;10.780;2023-04-19T05:06:10;14.20;96.70
45115;DHT22;30877;43.706;10.780;2023-04-19T05:08:38;14.40;96.70
45115;DHT22;30877;43.706;10.780;2023-04-19T05:11:18;14.40;96.70
45115;DHT22;30877;43.706;10.780;2023-04-19T05:13:46;14.20;96.70
45115;DHT22;30877;43.706;10.780;2023-04-19T05:16:14;14.30;96.70
45115;DHT22;30877;43.706;10.780;2023-04-19T05:18:45;14.20;96.70
45115;DHT22;30877;43.706;10.780;2023-04-19T05:21:15;14.00;96.70
45115;DHT22;30877;43.706;10.780;2023-04-19T05:23:43;14.00;96.70
45115;DHT22;30877;43.706;10.780;2023-04-19T05:26:13;14.10;96.70
45115;DHT22;30877;43.706;10.780;2023-04-19T05:28:43;14.20;96.70
45115;DHT22;30877;43.706;10.780;2023-04-19T05:31:27;14.40;96.70
45115;DHT22;30877;43.706;10.780;2023-04-19T05:34:08;14.60;96.70
45115;DHT22;30877;43.706;10.780;2023-04-19T05:36:38;14.60;96.70
45115;DHT22;30877;43.706;10.780;2023-04-19T05:39:28;14.70;96.70
45115;DHT22;30877;43.706;10.780;2023-04-19T05:41:57;14.80;96.70
45115;DHT22;30877;43.706;10.780;2023-04-19T05:44:25;14.90;96.70
45115;DHT22;30877;43.706;10.780;2023-04-19T05:46:53;14.90;96.70
45115;DHT22;30877;43.706;10.780;2023-04-19T05:49:44;14.80;96.70
45115;DHT22;30877;43.706;10.780;2023-04-19T05:52:21;14.80;96.70
45115;DHT22;30877;43.706;10.780;2023-04-19T05:54:52;15.00;96.70
45115;DHT22;30877;43.706;10.780;2023-04-19T05:57:20;14.80;96.70
45115;DHT22;30877;43.706;10.780;2023-04-19T05:59:48;14.70;96.70
45115;DHT22;30877;43.706;10.780;2023-04-19T06:02:20;14.60;96.70
45115;DHT22;30877;43.706;10.780;2023-04-19T06:04:48;14.60;96.70
45115;DHT22;30877;43.706;10.780;2023-04-19T06:07:16;14.50;96.70
45115;DHT22;30877;43.706;10.780;2023-04-19T06:10:02;14.60;96.70
45115;DHT22;30877;43.706;10.780;2023-04-19T06:12:29;14.50;96.70
45115;DHT22;30877;43.706;10.780;2023-04-19T06:14:57;14.60;96.70
45115;DHT22;30877;43.706;10.780;2023-04-19T06:17:25;14.90;96.70
45115;DHT22;30877;43.706;10.780;2023-04-19T06:19:53;14.70;96.70
45115;DHT22;30877;43.706;10.780;2023-04-19T06:22:50;14.80;96.70
45115;DHT22;30877;43.706;10.780;2023-04-19T06:25:20;14.90;96.70
45115;DHT22;30877;43.706;10.780;2023-04-19T06:27:48;14.90;96.70
45115;DHT22;30877;43.706;10.780;2023-04-19T06:30:16;15.00;96.70
45115;DHT22;30877;43.706;10.780;2023-04-19T06:32:44;15.10;96.70
45115;DHT22;30877;43.706;10.780;2023-04-19T06:35:12;15.00;96.70
45115;DHT22;30877;43.706;10.780;2023-04-19T06:37:40;15.10;96.70
45115;DHT22;30877;43.706;10.780;2023-04-19T06:40:09;15.20;96.70
45115;DHT22;30877;43.706;10.780;2023-04-19T06:42:39;15.30;96.70
45115;DHT22;30877;43.706;10.780;2023-04-19T06:45:08;15.30;96.70
45115;DHT22;30877;43.706;10.780;2023-04-19T06:47:36;15.40;96.70
45115;DHT22;30877;43.706;10.780;2023-04-19T06:50:06;15.50;96.70
45115;DHT22;30877;43.706;10.780;2023-04-19T06:52:34;15.50;96.70
45115;DHT22;30877;43.706;10.780;2023-04-19T06:55:02;15.50;96.70
45115;DHT22;30877;43.706;10.780;2023-04-19T06:57:30;15.60;96.70
45115;DHT22;30877;43.706;10.780;2023-04-19T06:59:59;15.60;96.70
45115;DHT22;30877;43.706;10.780;2023-04-19T07:02:28;15.70;96.70
45115;DHT22;30877;43.706;10.780;2023-04-19T07:04:56;15.70;96.70
45115;DHT22;30877;43.706;10.780;2023-04-19T07:07:24;15.70;96.70
45115;DHT22;30877;43.706;10.780;2023-04-19T07:09:52;15.70;96.70
45115;DHT22;30877;43.706;10.780;2023-04-19T07:12:20;15.80;96.70
45115;DHT22;30877;43.706;10.780;2023-04-19T07:14:49;15.80;96.70
45115;DHT22;30877;43.706;10.780;2023-04-19T07:17:24;15.90;96.70
45115;DHT22;30877;43.706;10.780;2023-04-19T07:19:52;15.90;96.70
45115;DHT22;30877;43.706;10.780;2023-04-19T07:22:20;15.90;96.70
45115;DHT22;30877;43.706;10.780;2023-04-19T07:24:48;16.00;96.70
45115;DHT22;30877;43.706;10.780;2023-04-19T07:27:18;16.00;96.70
45115;DHT22;30877;43.706;10.780;2023-04-19T07:29:46;16.10;96.70
45115;DHT22;30877;43.706;10.780;2023-04-19T07:32:14;16.10;96.70
45115;DHT22;30877;43.706;10.780;2023-04-19T07:34:44;16.10;96.70
45115;DHT22;30877;43.706;10.780;2023-04-19T07:37:12;16.10;96.70
45115;DHT22;30877;43.706;10.780;2023-04-19T07:39:40;16.20;96.70
45115;DHT22;30877;43.706;10.780;2023-04-19T07:42:09;16.30;96.70
45115;DHT22;30877;43.706;10.780;2023-04-19T07:44:36;16.30;96.70
45115;DHT22;30877;43.706;10.780;2023-04-19T07:47:05;16.40;96.70
45115;DHT22;30877;43.706;10.780;2023-04-19T07:49:33;16.50;96.70
45115;DHT22;30877;43.706;10.780;2023-04-19T07:52:05;16.60;96.70
45115;DHT22;30877;43.706;10.780;2023-04-19T07:54:33;16.70;96.70
45115;DHT22;30877;43.706;10.780;2023-04-19T07:57:02;16.70;96.70
45115;DHT22;30877;43.706;10.780;2023-04-19T07:59:30;16.70;96.70
45115;DHT22;30877;43.706;10.780;2023-04-19T08:02:00;16.80;96.70
45115;DHT22;30877;43.706;10.780;2023-04-19T08:04:28;16.90;96.70
45115;DHT22;30877;43.706;10.780;2023-04-19T08:06:56;16.90;96.70
45115;DHT22;30877;43.706;10.780;2023-04-19T08:09:26;17.00;96.70
45115;DHT22;30877;43.706;10.780;2023-04-19T08:11:54;17.00;96.70
45115;DHT22;30877;43.706;10.780;2023-04-19T08:14:24;17.00;96.70
45115;DHT22;30877;43.706;10.780;2023-04-19T08:17:07;17.00;96.70
45115;DHT22;30877;43.706;10.780;2023-04-19T08:19:52;17.10;96.70
45115;DHT22;30877;43.706;10.780;2023-04-19T08:22:20;17.20;96.70
45115;DHT22;30877;43.706;10.780;2023-04-19T08:24:50;17.30;96.70
45115;DHT22;30877;43.706;10.780;2023-04-19T08:27:19;17.30;96.70
45115;DHT22;30877;43.706;10.780;2023-04-19T08:29:47;17.30;96.70
45115;DHT22;30877;43.706;10.780;2023-04-19T08:32:15;17.40;96.70
45115;DHT22;30877;43.706;10.780;2023-04-19T08:34:43;17.50;96.70
45115;DHT22;30877;43.706;10.780;2023-04-19T08:37:11;17.60;96.70
45115;DHT22;30877;43.706;10.780;2023-04-19T08:39:39;17.70;96.70
45115;DHT22;30877;43.706;10.780;2023-04-19T08:42:09;17.70;96.70
45115;DHT22;30877;43.706;10.780;2023-04-19T08:44:56;17.80;96.70
45115;DHT22;30877;43.706;10.780;2023-04-19T08:47:49;17.90;96.70
45115;DHT22;30877;43.706;10.780;2023-04-19T08:50:27;18.00;96.70
45115;DHT22;30877;43.706;10.780;2023-04-19T08:52:59;18.00;96.70
45115;DHT22;30877;43.706;10.780;2023-04-19T08:55:47;18.10;96.70
45115;DHT22;30877;43.706;10.780;2023-04-19T08:58:36;18.20;96.70
45115;DHT22;30877;43.706;10.780;2023-04-19T09:01:07;18.10;96.70
45115;DHT22;30877;43.706;10.780;2023-04-19T09:03:53;18.20;96.70
45115;DHT22;30877;43.706;10.780;2023-04-19T09:06:36;18.40;96.70
45115;DHT22;30877;43.706;10.780;2023-04-19T09:09:14;18.60;96.70
45115;DHT22;30877;43.706;10.780;2023-04-19T09:11:46;18.60;96.70
45115;DHT22;30877;43.706;10.780;2023-04-19T09:14:17;18.60;96.70
45115;DHT22;30877;43.706;10.780;2023-04-19T09:16:46;18.70;96.70
45115;DHT22;30877;43.706;10.780;2023-04-19T09:19:14;18.80;96.70
45115;DHT22;30877;43.706;10.780;2023-04-19T09:21:51;18.90;96.70
45115;DHT22;30877;43.706;10.780;2023-04-19T09:24:36;19.00;96.70
45115;DHT22;30877;43.706;10.780;2023-04-19T09:27:26;19.00;96.70
45115;DHT22;30877;43.706;10.780;2023-04-19T09:29:59;18.90;96.70
45115;DHT22;30877;43.706;10.780;2023-04-19T09:32:42;19.00;96.70
45115;DHT22;30877;43.706;10.780;2023-04-19T09:35:11;18.90;96.70
45115;DHT22;30877;43.706;10.780;2023-04-19T09:37:39;18.80;96.70
45115;DHT22;30877;43.706;10.780;2023-04-19T09:40:32;18.80;96.70
45115;DHT22;30877;43.706;10.780;2023-04-19T09:43:01;18.90;96.70
45115;DHT22;30877;43.706;10.780;2023-04-19T09:45:41;18.80;96.70
45115;DHT22;30877;43.706;10.780;2023-04-19T09:48:11;18.80;96.70
45115;DHT22;30877;43.706;10.780;2023-04-19T09:50:55;19.00;96.70
45115;DHT22;30877;43.706;10.780;2023-04-19T09:53:32;19.20;96.70
45115;DHT22;30877;43.706;10.780;2023-04-19T09:56:01;19.40;96.70
45115;DHT22;30877;43.706;10.780;2023-04-19T09:58:32;19.70;96.70
45115;DHT22;30877;43.706;10.780;2023-04-19T10:01:19;19.90;96.70
45115;DHT22;30877;43.706;10.780;2023-04-19T10:03:49;20.00;96.70
45115;DHT22;30877;43.706;10.780;2023-04-19T10:06:20;20.20;96.70
45115;DHT22;30877;43.706;10.780;2023-04-19T10:08:53;20.20;96.70
45115;DHT22;30877;43.706;10.780;2023-04-19T10:11:26;20.40;96.70
45115;DHT22;30877;43.706;10.780;2023-04-19T10:14:00;20.50;96.70
45115;DHT22;30877;43.706;10.780;2023-04-19T10:16:33;20.50;96.70
45115;DHT22;30877;43.706;10.780;2023-04-19T10:19:03;20.60;96.70
45115;DHT22;30877;43.706;10.780;2023-04-19T10:21:32;20.50;96.70
45115;DHT22;30877;43.706;10.780;2023-04-19T10:24:01;20.70;96.70
45115;DHT22;30877;43.706;10.780;2023-04-19T10:26:30;20.80;96.70
45115;DHT22;30877;43.706;10.780;2023-04-19T10:29:58;21.00;96.70
45115;DHT22;30877;43.706;10.780;2023-04-19T10:32:35;21.00;96.70
45115;DHT22;30877;43.706;10.780;2023-04-19T10:35:07;21.10;96.70
45115;DHT22;30877;43.706;10.780;2023-04-19T10:37:39;21.00;96.70
45115;DHT22;30877;43.706;10.780;2023-04-19T10:40:09;20.90;96.70
45115;DHT22;30877;43.706;10.780;2023-04-19T10:43:15;21.20;96.70
45115;DHT22;30877;43.706;10.780;2023-04-19T10:45:44;21.30;96.70
45115;DHT22;30877;43.706;10.780;2023-04-19T10:48:37;21.50;96.70
45115;DHT22;30877;43.706;10.780;2023-04-19T10:51:12;21.70;96.70
45115;DHT22;30877;43.706;10.780;2023-04-19T10:53:52;21.70;96.70
45115;DHT22;30877;43.706;10.780;2023-04-19T10:56:22;21.80;96.70
45115;DHT22;30877;43.706;10.780;2023-04-19T10:59:14;21.80;96.70
45115;DHT22;30877;43.706;10.780;2023-04-19T11:01:50;21.70;96.70
45115;DHT22;30877;43.706;10.780;2023-04-19T11:04:23;21.70;96.70
45115;DHT22;30877;43.706;10.780;2023-04-19T11:06:59;21.60;96.70
45115;DHT22;30877;43.706;10.780;2023-04-19T11:09:31;21.60;96.70
45115;DHT22;30877;43.706;10.780;2023-04-19T11:12:01;21.80;96.70
45115;DHT22;30877;43.706;10.780;2023-04-19T11:14:31;21.90;96.70
45115;DHT22;30877;43.706;10.780;2023-04-19T11:17:02;22.00;96.70
45115;DHT22;30877;43.706;10.780;2023-04-19T11:19:32;22.40;96.70
45115;DHT22;30877;43.706;10.780;2023-04-19T11:22:00;22.70;96.70
45115;DHT22;30877;43.706;10.780;2023-04-19T11:24:28;23.00;96.70
45115;DHT22;30877;43.706;10.780;2023-04-19T11:26:57;23.10;96.70
45115;DHT22;30877;43.706;10.780;2023-04-19T11:29:25;23.30;96.70
45115;DHT22;30877;43.706;10.780;2023-04-19T11:31:54;23.40;96.70
45115;DHT22;30877;43.706;10.780;2023-04-19T11:34:23;23.30;96.70
45115;DHT22;30877;43.706;10.780;2023-04-19T11:36:52;23.10;96.70
45115;DHT22;30877;43.706;10.780;2023-04-19T11:39:21;23.20;96.70
45115;DHT22;30877;43.706;10.780;2023-04-19T11:41:50;23.30;96.70
45115;DHT22;30877;43.706;10.780;2023-04-19T11:44:18;23.50;96.70
45115;DHT22;30877;43.706;10.780;2023-04-19T11:47:00;23.60;96.70
45115;DHT22;30877;43.706;10.780;2023-04-19T11:49:29;23.60;96.70
45115;DHT22;30877;43.706;10.780;2023-04-19T11:52:00;23.70;96.70
45115;DHT22;30877;43.706;10.780;2023-04-19T11:54:33;23.90;96.70
45115;DHT22;30877;43.706;10.780;2023-04-19T11:57:02;23.80;96.70
45115;DHT22;30877;43.706;10.780;2023-04-19T11:59:31;23.50;96.70
45115;DHT22;30877;43.706;10.780;2023-04-19T12:02:07;23.40;96.70
45115;DHT22;30877;43.706;10.780;2023-04-19T12:04:36;23.40;96.70
45115;DHT22;30877;43.706;10.780;2023-04-19T12:07:10;23.40;96.70
45115;DHT22;30877;43.706;10.780;2023-04-19T12:09:38;23.60;96.70
45115;DHT22;30877;43.706;10.780;2023-04-19T12:12:06;23.90;96.70
45115;DHT22;30877;43.706;10.780;2023-04-19T12:14:35;24.00;96.70
45115;DHT22;30877;43.706;10.780;2023-04-19T12:17:10;23.90;96.70
45115;DHT22;30877;43.706;10.780;2023-04-19T12:19:44;23.90;96.70
45115;DHT22;30877;43.706;10.780;2023-04-19T12:22:16;24.10;96.70
45115;DHT22;30877;43.706;10.780;2023-04-19T12:24:49;24.20;96.70
45115;DHT22;30877;43.706;10.780;2023-04-19T12:27:18;24.30;96.70
45115;DHT22;30877;43.706;10.780;2023-04-19T12:29:46;24.30;96.70
45115;DHT22;30877;43.706;10.780;2023-04-19T12:32:14;24.50;96.70
45115;DHT22;30877;43.706;10.780;2023-04-19T12:34:43;24.80;96.70
45115;DHT22;30877;43.706;10.780;2023-04-19T12:37:12;25.10;96.70
45115;DHT22;30877;43.706;10.780;2023-04-19T12:39:41;25.30;96.70
45115;DHT22;30877;43.706;10.780;2023-04-19T12:42:10;25.30;96.70
45115;DHT22;30877;43.706;10.780;2023-04-19T12:44:38;25.40;96.70
45115;DHT22;30877;43.706;10.780;2023-04-19T12:47:07;25.70;96.70
45115;DHT22;30877;43.706;10.780;2023-04-19T12:49:35;25.90;96.70
45115;DHT22;30877;43.706;10.780;2023-04-19T12:52:05;26.00;96.70
45115;DHT22;30877;43.706;10.780;2023-04-19T12:54:33;25.80;96.70
45115;DHT22;30877;43.706;10.780;2023-04-19T12:57:03;25.20;96.70
45115;DHT22;30877;43.706;10.780;2023-04-19T12:59:32;25.00;96.70
45115;DHT22;30877;43.706;10.780;2023-04-19T13:02:00;25.20;96.70
45115;DHT22;30877;43.706;10.780;2023-04-19T13:04:29;24.80;96.70
45115;DHT22;30877;43.706;10.780;2023-04-19T13:06:58;24.60;96.70
45115;DHT22;30877;43.706;10.780;2023-04-19T13:09:27;24.40;96.70
45115;DHT22;30877;43.706;10.780;2023-04-19T13:11:55;24.30;96.70
45115;DHT22;30877;43.706;10.780;2023-04-19T13:14:27;24.30;96.70
45115;DHT22;30877;43.706;10.780;2023-04-19T13:16:55;24.30;96.70
45115;DHT22;30877;43.706;10.780;2023-04-19T13:19:24;24.50;96.70
45115;DHT22;30877;43.706;10.780;2023-04-19T13:21:52;24.70;96.70
45115;DHT22;30877;43.706;10.780;2023-04-19T13:24:20;24.70;96.70
45115;DHT22;30877;43.706;10.780;2023-04-19T13:26:48;24.50;96.70
45115;DHT22;30877;43.706;10.780;2023-04-19T13:29:17;23.90;96.70
45115;DHT22;30877;43.706;10.780;2023-04-19T13:31:46;23.60;96.70
45115;DHT22;30877;43.706;10.780;2023-04-19T13:34:16;23.40;96.70
45115;DHT22;30877;43.706;10.780;2023-04-19T13:36:45;23.00;96.70
45115;DHT22;30877;43.706;10.780;2023-04-19T13:39:14;22.60;96.70
45115;DHT22;30877;43.706;10.780;2023-04-19T13:41:43;22.50;96.70
45115;DHT22;30877;43.706;10.780;2023-04-19T13:44:11;22.50;96.70
45115;DHT22;30877;43.706;10.780;2023-04-19T13:46:39;22.60;96.70
45115;DHT22;30877;43.706;10.780;2023-04-19T13:49:08;22.90;96.70
45115;DHT22;30877;43.706;10.780;2023-04-19T13:51:36;22.50;96.70
45115;DHT22;30877;43.706;10.780;2023-04-19T13:54:16;22.30;96.70
45115;DHT22;30877;43.706;10.780;2023-04-19T13:56:46;22.20;96.70
45115;DHT22;30877;43.706;10.780;2023-04-19T13:59:17;22.10;96.70
45115;DHT22;30877;43.706;10.780;2023-04-19T14:01:45;22.00;96.70
45115;DHT22;30877;43.706;10.780;2023-04-19T14:04:15;22.30;96.70
45115;DHT22;30877;43.706;10.780;2023-04-19T14:06:44;22.70;96.70
45115;DHT22;30877;43.706;10.780;2023-04-19T14:09:12;22.50;96.70
45115;DHT22;30877;43.706;10.780;2023-04-19T14:11:40;22.10;96.70
45115;DHT22;30877;43.706;10.780;2023-04-19T14:14:08;22.50;96.70
45115;DHT22;30877;43.706;10.780;2023-04-19T14:16:36;23.20;96.70
45115;DHT22;30877;43.706;10.780;2023-04-19T14:19:04;23.90;96.70
45115;DHT22;30877;43.706;10.780;2023-04-19T14:21:34;24.20;96.70
45115;DHT22;30877;43.706;10.780;2023-04-19T14:24:03;24.20;96.70
45115;DHT22;30877;43.706;10.780;2023-04-19T14:26:31;24.20;96.70
45115;DHT22;30877;43.706;10.780;2023-04-19T14:28:59;24.20;96.70
45115;DHT22;30877;43.706;10.780;2023-04-19T14:31:27;24.40;96.70
45115;DHT22;30877;43.706;10.780;2023-04-19T14:33:56;24.60;96.70
45115;DHT22;30877;43.706;10.780;2023-04-19T14:36:24;24.60;96.70
45115;DHT22;30877;43.706;10.780;2023-04-19T14:38:54;24.60;96.70
45115;DHT22;30877;43.706;10.780;2023-04-19T14:41:22;24.90;96.70
45115;DHT22;30877;43.706;10.780;2023-04-19T14:43:51;25.10;96.70
45115;DHT22;30877;43.706;10.780;2023-04-19T14:46:19;25.10;96.70
45115;DHT22;30877;43.706;10.780;2023-04-19T14:48:47;24.90;96.70
45115;DHT22;30877;43.706;10.780;2023-04-19T14:51:15;25.00;96.70
45115;DHT22;30877;43.706;10.780;2023-04-19T14:53:43;24.90;96.70
45115;DHT22;30877;43.706;10.780;2023-04-19T14:56:12;24.60;96.70
45115;DHT22;30877;43.706;10.780;2023-04-19T14:58:40;23.90;96.70
45115;DHT22;30877;43.706;10.780;2023-04-19T15:01:12;23.50;96.70
45115;DHT22;30877;43.706;10.780;2023-04-19T15:03:40;23.30;96.70
45115;DHT22;30877;43.706;10.780;2023-04-19T15:06:08;23.00;96.70
45115;DHT22;30877;43.706;10.780;2023-04-19T15:08:36;22.80;96.70
45115;DHT22;30877;43.706;10.780;2023-04-19T15:11:04;22.50;96.70
45115;DHT22;30877;43.706;10.780;2023-04-19T15:13:34;22.10;96.70
45115;DHT22;30877;43.706;10.780;2023-04-19T15:16:03;21.90;96.70
45115;DHT22;30877;43.706;10.780;2023-04-19T15:18:31;22.00;96.70
45115;DHT22;30877;43.706;10.780;2023-04-19T15:20:59;22.00;96.70
45115;DHT22;30877;43.706;10.780;2023-04-19T15:23:29;22.90;96.70
45115;DHT22;30877;43.706;10.780;2023-04-19T15:25:57;24.10;96.70
45115;DHT22;30877;43.706;10.780;2023-04-19T15:28:25;23.60;96.70
45115;DHT22;30877;43.706;10.780;2023-04-19T15:30:59;22.90;96.70
45115;DHT22;30877;43.706;10.780;2023-04-19T15:33:28;22.50;96.70
45115;DHT22;30877;43.706;10.780;2023-04-19T15:35:57;22.40;96.70
45115;DHT22;30877;43.706;10.780;2023-04-19T15:38:27;22.90;96.70